Time;durP1;ratioP1;P1;durP2;ratioP2;P2;SDS_P1;SDS_P2;PMS_P1;PMS_P2;Temp;Humidity;BMP_temperature;BMP_pressure;BME280_temperature;BME280_humidity;BME280_pressure;Samples;Min_cycle;Max_cycle;Signal;HPM_P1;HPM_P2
2022/07/26 00:00:08;;;;;;;19.73;11.55;;;;;;;21.60;55.90;93773.13;5124364;27;20027;-82
2022/07/26 00:02:34;;;;;;;13.35;10.52;;;;;;;21.55;55.86;93779.69;5124279;28;20018;-83
2022/07/26 00:04:59;;;;;;;15.45;10.85;;;;;;;21.50;56.09;93769.22;5124258;28;20015;-83
2022/07/26 00:07:25;;;;;;;13.88;10.38;;;;;;;21.37;56.43;93771.50;5124292;28;20086;-83
2022/07/26 00:09:50;;;;;;;14.52;10.23;;;;;;;21.20;56.94;93775.69;5124229;28;20285;-83
2022/07/26 00:12:16;;;;;;;16.88;10.90;;;;;;;21.07;57.09;93768.31;5124211;27;20030;-83
2022/07/26 00:14:42;;;;;;;14.68;10.27;;;;;;;21.08;57.29;93765.22;5123859;28;20030;-83
2022/07/26 00:17:07;;;;;;;17.20;11.02;;;;;;;20.97;57.39;93770.59;5124205;28;20043;-83
2022/07/26 00:19:33;;;;;;;15.07;10.35;;;;;;;20.93;57.94;93769.81;5124158;28;20027;-83
2022/07/26 00:24:42;;;;;;;13.77;9.65;;;;;;;20.92;58.01;93765.53;5123317;28;20069;-83
2022/07/26 00:27:08;;;;;;;13.70;10.07;;;;;;;20.96;57.55;93771.75;5123749;28;20097;-83
2022/07/26 00:29:33;;;;;;;13.18;10.98;;;;;;;21.03;57.46;93762.88;5123688;28;20318;-82
2022/07/26 00:31:59;;;;;;;19.20;10.65;;;;;;;21.04;57.41;93756.28;5123837;28;20102;-83
2022/07/26 00:34:24;;;;;;;16.73;10.95;;;;;;;21.07;57.83;93765.63;5123744;28;20195;-83
2022/07/26 00:36:50;;;;;;;14.25;10.35;;;;;;;21.13;57.78;93761.38;5123821;28;20044;-83
2022/07/26 00:39:15;;;;;;;14.27;10.85;;;;;;;21.20;58.15;93761.38;5123540;28;20020;-83
2022/07/26 00:41:40;;;;;;;16.65;9.98;;;;;;;21.20;57.94;93756.72;5123571;28;20031;-83
2022/07/26 00:44:06;;;;;;;25.10;12.40;;;;;;;21.20;58.26;93764.09;5123783;28;20086;-83
2022/07/26 00:46:32;;;;;;;13.15;10.65;;;;;;;21.19;57.98;93754.44;5123414;28;20027;-83
2022/07/26 00:48:57;;;;;;;15.85;10.88;;;;;;;21.21;57.80;93752.09;5123537;28;20061;-83
2022/07/26 00:51:23;;;;;;;16.27;10.25;;;;;;;21.22;57.65;93746.28;5123536;28;20352;-82
2022/07/26 00:53:49;;;;;;;19.42;10.70;;;;;;;21.21;57.35;93752.88;5123368;28;20341;-84
2022/07/26 00:56:15;;;;;;;15.52;10.70;;;;;;;21.23;56.92;93757.91;5123224;28;20267;-84
2022/07/26 00:58:42;;;;;;;13.98;10.50;;;;;;;21.22;56.83;93748.22;5123501;28;20039;-83
2022/07/26 01:01:08;;;;;;;17.33;11.63;;;;;;;21.21;57.19;93750.16;5123393;28;20098;-83
2022/07/26 01:03:34;;;;;;;18.08;10.43;;;;;;;21.20;56.84;93754.03;5123125;28;20094;-84
2022/07/26 01:05:59;;;;;;;12.68;10.23;;;;;;;21.19;57.57;93754.44;5123143;28;20062;-83
2022/07/26 01:08:25;;;;;;;13.73;10.25;;;;;;;21.18;57.80;93761.00;5123450;28;20279;-83
2022/07/26 01:10:52;;;;;;;16.85;10.10;;;;;;;21.16;57.85;93750.53;5123217;28;20047;-83
2022/07/26 01:13:21;;;;;;;14.43;10.15;;;;;;;21.13;57.98;93761.38;5122833;28;20028;-83
2022/07/26 01:15:46;;;;;;;14.63;10.07;;;;;;;21.10;57.80;93756.69;5123259;28;20069;-83
2022/07/26 01:18:12;;;;;;;13.35;10.23;;;;;;;21.03;57.70;93752.81;5123136;28;20261;-83
2022/07/26 01:20:38;;;;;;;14.18;10.20;;;;;;;21.03;57.94;93760.19;5123003;28;20023;-83
2022/07/26 01:23:03;;;;;;;18.67;10.02;;;;;;;21.01;57.81;93752.41;5123019;28;20082;-83
2022/07/26 01:25:31;;;;;;;16.35;9.63;;;;;;;21.00;57.50;93753.59;5122891;28;20025;-83
2022/07/26 01:27:56;;;;;;;14.10;9.27;;;;;;;21.00;57.39;93745.47;5122993;28;20015;-83
2022/07/26 01:30:22;;;;;;;14.02;9.63;;;;;;;21.01;57.39;93757.84;5122895;28;20020;-83
2022/07/26 01:32:48;;;;;;;12.55;8.70;;;;;;;20.96;57.42;93741.94;5122855;28;20020;-84
2022/07/26 01:35:13;;;;;;;14.32;8.77;;;;;;;20.96;57.45;93750.06;5123031;28;20011;-84
2022/07/26 01:37:40;;;;;;;11.90;9.18;;;;;;;20.93;57.24;93748.13;5125701;28;20016;-84
2022/07/26 01:40:06;;;;;;;13.27;9.38;;;;;;;20.92;57.21;93743.84;5126996;28;20318;-85
2022/07/26 01:42:31;;;;;;;12.40;8.90;;;;;;;20.81;57.34;93740.34;5127185;28;20118;-85
2022/07/26 01:44:57;;;;;;;15.93;8.38;;;;;;;20.82;57.58;93741.88;5127102;28;20023;-85
2022/07/26 01:47:22;;;;;;;10.85;8.52;;;;;;;20.76;57.58;93738.78;5126771;28;20314;-84
2022/07/26 01:49:48;;;;;;;13.38;8.85;;;;;;;20.71;58.05;93746.50;5126943;28;20019;-85
2022/07/26 01:52:13;;;;;;;13.18;8.52;;;;;;;20.72;57.83;93746.13;5127030;28;20023;-86
2022/07/26 01:54:39;;;;;;;13.40;9.02;;;;;;;20.74;57.59;93762.75;5127109;28;20035;-86
2022/07/26 01:57:04;;;;;;;11.68;8.98;;;;;;;20.73;57.52;93755.78;5126751;28;20035;-85
2022/07/26 01:59:30;;;;;;;13.70;9.93;;;;;;;20.70;57.79;93743.00;5126758;28;20057;-85
2022/07/26 02:01:55;;;;;;;12.15;9.13;;;;;;;20.66;57.66;93750.34;5126677;28;20020;-86
2022/07/26 02:07:05;;;;;;;13.57;9.07;;;;;;;20.63;58.13;93751.84;5126745;28;20042;-86
2022/07/26 02:09:30;;;;;;;12.68;8.80;;;;;;;20.59;58.17;93755.72;5126649;28;20027;-85
2022/07/26 02:11:55;;;;;;;12.60;9.52;;;;;;;20.60;58.61;93758.06;5126834;28;20019;-85
2022/07/26 02:14:21;;;;;;;12.27;9.13;;;;;;;20.53;59.20;93757.97;5126746;28;20020;-85
2022/07/26 02:16:46;;;;;;;13.30;10.20;;;;;;;20.45;59.56;93750.97;5126345;27;20063;-85
2022/07/26 02:19:12;;;;;;;13.70;9.38;;;;;;;20.48;59.67;93761.06;5126431;28;20325;-85
2022/07/26 02:21:37;;;;;;;12.30;9.65;;;;;;;20.47;59.80;93764.91;5126385;27;20027;-85
2022/07/26 02:24:03;;;;;;;13.20;10.05;;;;;;;20.43;59.71;93767.59;5126084;28;20081;-84
2022/07/26 02:26:28;;;;;;;15.93;9.30;;;;;;;20.40;59.95;93759.44;5126317;28;20030;-85
2022/07/26 02:28:53;;;;;;;19.83;9.40;;;;;;;20.41;60.02;93758.28;5126000;28;20047;-85
2022/07/26 02:31:19;;;;;;;13.00;9.63;;;;;;;20.41;60.11;93764.50;5125120;28;20037;-85
2022/07/26 02:33:44;;;;;;;18.15;10.95;;;;;;;20.36;60.17;93759.44;5126216;28;20020;-85
2022/07/26 02:36:10;;;;;;;13.90;9.93;;;;;;;20.35;59.75;93763.31;5125057;28;20222;-83
2022/07/26 02:38:35;;;;;;;14.40;10.18;;;;;;;20.31;59.93;93759.00;5125876;28;20180;-83
2022/07/26 02:41:01;;;;;;;14.90;10.38;;;;;;;20.30;59.88;93769.06;5125927;28;20020;-83
2022/07/26 02:43:26;;;;;;;13.40;10.38;;;;;;;20.29;60.25;93758.59;5125922;28;20099;-83
2022/07/26 02:45:52;;;;;;;14.85;9.75;;;;;;;20.25;60.18;93763.97;5125753;28;20019;-84
2022/07/26 02:48:17;;;;;;;15.18;9.75;;;;;;;20.22;59.56;93770.16;5124642;28;20020;-83
2022/07/26 02:50:42;;;;;;;12.32;9.57;;;;;;;20.21;59.02;93766.69;5125941;28;20019;-83
2022/07/26 02:53:08;;;;;;;15.52;8.70;;;;;;;20.21;58.91;93774.81;5125481;28;20286;-84
2022/07/26 02:55:33;;;;;;;13.65;8.93;;;;;;;20.16;58.18;93767.03;5124988;28;20019;-84
2022/07/26 02:57:59;;;;;;;15.57;10.10;;;;;;;20.19;58.12;93760.88;5125033;28;20039;-84
2022/07/26 03:00:25;;;;;;;15.35;9.13;;;;;;;20.13;58.10;93762.38;5125177;28;20083;-84
2022/07/26 03:02:51;;;;;;;13.52;9.48;;;;;;;20.14;58.54;93766.63;5125682;28;20058;-85
2022/07/26 03:05:17;;;;;;;13.60;9.48;;;;;;;20.14;58.47;93765.84;5125281;28;20023;-85
2022/07/26 03:07:42;;;;;;;12.23;9.98;;;;;;;20.10;58.79;93768.53;5125646;28;20049;-85
2022/07/26 03:10:08;;;;;;;14.98;10.63;;;;;;;20.11;58.66;93775.50;5125328;28;20031;-85
2022/07/26 03:12:34;;;;;;;14.23;9.68;;;;;;;20.11;58.72;93770.09;5125219;28;20054;-84
2022/07/26 03:14:59;;;;;;;12.82;9.98;;;;;;;20.12;58.75;93781.69;5125294;28;20031;-85
2022/07/26 03:17:25;;;;;;;11.90;9.05;;;;;;;20.12;58.78;93770.88;5125043;28;20346;-85
2022/07/26 03:19:51;;;;;;;12.80;10.07;;;;;;;20.11;58.80;93769.28;5125231;28;20034;-84
2022/07/26 03:22:16;;;;;;;14.65;9.32;;;;;;;20.16;58.92;93782.47;5125255;28;20025;-84
2022/07/26 03:24:42;;;;;;;16.95;9.88;;;;;;;20.14;58.71;93782.84;5125302;28;20027;-85
2022/07/26 03:27:07;;;;;;;15.75;9.50;;;;;;;20.14;58.80;93774.75;5125268;28;20019;-84
2022/07/26 03:29:33;;;;;;;17.10;10.02;;;;;;;20.15;58.50;93789.84;5124845;28;20015;-85
2022/07/26 03:31:58;;;;;;;14.98;8.93;;;;;;;20.17;58.84;93790.22;5125057;28;20094;-85
2022/07/26 03:34:24;;;;;;;14.88;9.32;;;;;;;20.18;58.57;93783.66;5124928;28;20069;-85
2022/07/26 03:36:49;;;;;;;13.05;9.55;;;;;;;20.22;58.42;93781.75;5125110;28;20302;-85
2022/07/26 03:39:15;;;;;;;12.80;9.60;;;;;;;20.22;58.92;93781.75;5124892;28;20330;-84
2022/07/26 03:41:40;;;;;;;13.98;9.40;;;;;;;20.26;59.08;93787.19;5124821;28;20020;-85
2022/07/26 03:44:06;;;;;;;14.15;9.32;;;;;;;20.29;60.16;93781.03;5124653;28;20035;-85
2022/07/26 03:46:31;;;;;;;13.48;9.75;;;;;;;20.32;59.35;93777.56;5124739;28;20098;-86
2022/07/26 03:48:57;;;;;;;13.32;9.75;;;;;;;20.34;58.81;93782.63;5124667;28;20023;-86
2022/07/26 03:51:23;;;;;;;12.93;9.13;;;;;;;20.37;58.93;93782.66;5124636;28;20022;-86
2022/07/26 03:53:48;;;;;;;16.25;9.55;;;;;;;20.41;58.99;93775.31;5124598;28;20015;-86
2022/07/26 03:56:32;;;;;;;14.15;10.07;;;;;;;20.42;59.19;93774.16;5124559;28;20016;-86
2022/07/26 03:59:05;;;;;;;12.68;9.43;;;;;;;20.46;59.25;93774.19;5124542;28;20366;-86
2022/07/26 04:01:31;;;;;;;18.55;9.85;;;;;;;20.50;58.83;93771.50;5124134;28;20022;-86
2022/07/26 04:03:57;;;;;;;14.25;10.02;;;;;;;20.59;59.10;93772.72;5124446;28;20023;-85
2022/07/26 04:06:23;;;;;;;16.92;9.63;;;;;;;20.63;59.12;93773.53;5124364;28;20015;-85
2022/07/26 04:08:48;;;;;;;11.27;9.63;;;;;;;20.67;59.54;93778.19;5124221;28;20016;-83
2022/07/26 04:11:13;;;;;;;20.17;10.25;;;;;;;20.69;59.83;93778.59;5124388;28;20023;-83
2022/07/26 04:13:39;;;;;;;15.18;10.27;;;;;;;20.71;59.83;93774.34;5124217;28;20011;-83
2022/07/26 04:16:05;;;;;;;11.30;9.32;;;;;;;20.76;59.47;93774.00;5123920;28;20043;-83
2022/07/26 04:18:31;;;;;;;16.10;9.88;;;;;;;20.83;59.50;93770.53;5124036;28;20030;-84
2022/07/26 04:20:56;;;;;;;18.50;10.63;;;;;;;20.91;60.43;93772.13;5123995;28;20094;-83
2022/07/26 04:23:22;;;;;;;22.75;11.98;;;;;;;20.94;59.46;93765.94;5123975;28;20091;-83
2022/07/26 04:25:47;;;;;;;14.38;9.70;;;;;;;20.97;58.72;93759.75;5123821;28;20024;-82
2022/07/26 04:28:13;;;;;;;16.42;11.90;;;;;;;20.98;58.68;93758.59;5123959;28;20028;-83
2022/07/26 04:30:39;;;;;;;14.93;10.65;;;;;;;21.03;58.93;93762.88;5122554;28;20256;-83
2022/07/26 04:33:04;;;;;;;17.58;11.15;;;;;;;21.13;58.91;93761.38;5123896;28;20027;-86
2022/07/26 04:35:30;;;;;;;16.48;10.90;;;;;;;21.25;59.15;93763.72;5123711;28;20245;-84
2022/07/26 04:37:56;;;;;;;18.55;10.90;;;;;;;21.31;58.98;93756.78;5123833;28;20031;-84
2022/07/26 04:40:22;;;;;;;19.13;11.35;;;;;;;21.39;58.99;93758.34;5123628;28;20230;-84
2022/07/26 04:42:49;;;;;;;17.08;11.27;;;;;;;21.47;58.98;93761.84;5123670;28;20381;-84
2022/07/26 04:45:14;;;;;;;18.63;12.30;;;;;;;21.51;58.46;93770.78;5123504;28;20237;-84
2022/07/26 04:47:41;;;;;;;18.23;13.43;;;;;;;21.49;57.73;93770.38;5123655;28;20102;-82
2022/07/26 04:50:07;;;;;;;19.48;13.02;;;;;;;21.54;57.35;93763.81;5123536;28;20197;-81
2022/07/26 04:52:33;;;;;;;16.48;12.32;;;;;;;21.53;57.51;93768.44;5123270;28;20019;-81
2022/07/26 04:54:58;;;;;;;28.60;13.45;;;;;;;21.44;57.61;93760.69;5123299;28;20020;-81
2022/07/26 04:57:24;;;;;;;25.52;13.88;;;;;;;21.43;57.54;93775.44;5123474;28;20015;-83
2022/07/26 04:59:49;;;;;;;28.17;14.15;;;;;;;21.47;57.57;93770.00;5123120;28;20314;-83
2022/07/26 05:02:14;;;;;;;32.22;13.70;;;;;;;21.42;57.45;93760.31;5123347;28;20015;-84
2022/07/26 05:04:43;;;;;;;18.80;12.77;;;;;;;21.48;57.44;93759.94;5123298;28;20022;-87
2022/07/26 05:07:09;;;;;;;21.23;15.32;;;;;;;21.54;57.28;93763.81;5123511;28;20015;-89
2022/07/26 05:09:34;;;;;;;26.70;13.75;;;;;;;21.60;57.26;93763.06;5123758;28;20031;-85
2022/07/26 05:12:00;;;;;;;20.38;13.65;;;;;;;21.55;57.20;93765.38;5121256;28;20024;-85
2022/07/26 05:14:25;;;;;;;23.40;13.55;;;;;;;21.48;57.42;93765.38;5123308;28;20322;-85
2022/07/26 05:16:51;;;;;;;21.40;13.38;;;;;;;21.44;57.83;93755.28;5121893;28;20360;-86
2022/07/26 05:19:16;;;;;;;30.70;13.85;;;;;;;21.59;57.85;93758.00;5123258;28;20038;-84
2022/07/26 05:21:42;;;;;;;21.15;13.25;;;;;;;21.69;57.70;93749.09;5123124;28;20360;-83
2022/07/26 05:24:07;;;;;;;24.40;14.20;;;;;;;21.69;57.69;93754.53;5123010;28;20028;-85
2022/07/26 05:26:33;;;;;;;22.30;13.23;;;;;;;21.77;57.64;93755.31;5123242;28;20066;-84
2022/07/26 05:28:58;;;;;;;30.58;13.52;;;;;;;21.90;57.87;93755.69;5122924;28;20024;-84
2022/07/26 05:31:24;;;;;;;18.77;12.45;;;;;;;22.00;57.33;93763.06;5123118;28;20086;-85
2022/07/26 05:33:49;;;;;;;23.63;12.88;;;;;;;22.08;55.87;93756.47;5122925;28;20058;-86
2022/07/26 05:36:15;;;;;;;20.75;13.15;;;;;;;22.13;56.23;93760.75;5123328;28;20047;-86
2022/07/26 05:38:40;;;;;;;16.85;12.25;;;;;;;22.17;55.57;93751.44;5122789;28;20079;-79
2022/07/26 05:41:06;;;;;;;18.27;11.77;;;;;;;22.24;56.36;93753.41;5122919;28;20038;-79
2022/07/26 05:43:31;;;;;;;19.88;11.82;;;;;;;22.35;55.84;93759.59;5122742;28;20256;-77
2022/07/26 05:45:57;;;;;;;16.83;10.95;;;;;;;22.41;55.22;93749.88;5122786;28;20332;-77
2022/07/26 05:48:23;;;;;;;25.15;12.65;;;;;;;22.48;54.46;93743.66;5122501;28;20019;-76
2022/07/26 05:50:48;;;;;;;19.10;12.57;;;;;;;22.59;54.40;93752.56;5122667;28;20057;-77
2022/07/26 05:53:14;;;;;;;21.40;13.52;;;;;;;22.73;55.35;93753.69;5122899;28;20043;-77
2022/07/26 05:55:40;;;;;;;18.38;11.68;;;;;;;22.77;54.98;93749.78;5122689;28;20087;-77
2022/07/26 05:58:05;;;;;;;14.00;11.57;;;;;;;22.82;54.63;93745.91;5122692;28;20019;-77
2022/07/26 06:00:31;;;;;;;18.80;11.68;;;;;;;22.93;55.21;93740.41;5122839;28;20031;-76
2022/07/26 06:02:56;;;;;;;17.40;12.13;;;;;;;23.07;54.16;93751.25;5122679;28;20023;-77
2022/07/26 06:05:22;;;;;;;23.65;12.90;;;;;;;23.11;54.44;93741.16;5122475;28;20062;-77
2022/07/26 06:07:47;;;;;;;21.15;12.20;;;;;;;23.17;54.28;93744.22;5122874;28;20254;-77
2022/07/26 06:10:12;;;;;;;27.13;12.48;;;;;;;23.30;53.88;93745.31;5122700;28;20094;-77
2022/07/26 06:12:38;;;;;;;19.10;12.00;;;;;;;23.43;53.02;93740.22;5122540;28;20159;-79
2022/07/26 06:15:04;;;;;;;15.02;11.40;;;;;;;23.60;53.40;93741.25;5122448;28;20090;-78
2022/07/26 06:17:29;;;;;;;19.92;11.43;;;;;;;23.73;52.82;93733.38;5122491;28;20119;-79
2022/07/26 06:19:56;;;;;;;23.65;11.70;;;;;;;23.88;52.24;93725.94;5122398;28;20019;-78
2022/07/26 06:22:22;;;;;;;13.43;11.48;;;;;;;23.99;52.13;93738.25;5122855;28;20031;-77
2022/07/26 06:24:47;;;;;;;20.33;11.15;;;;;;;24.10;51.52;93727.31;5126445;28;20023;-78
2022/07/26 06:27:12;;;;;;;22.17;11.13;;;;;;;24.17;50.64;93718.28;5126280;28;20025;-78
2022/07/26 06:29:39;;;;;;;19.08;11.25;;;;;;;24.22;51.05;93729.53;5126130;28;20023;-79
2022/07/26 06:32:05;;;;;;;19.05;10.88;;;;;;;24.34;50.72;93725.53;5126124;28;20028;-79
2022/07/26 06:34:30;;;;;;;16.00;11.15;;;;;;;24.40;50.22;93723.13;5125078;28;20183;-79
2022/07/26 06:36:55;;;;;;;17.92;11.60;;;;;;;24.50;49.79;93733.16;5126069;27;20050;-77
2022/07/26 06:39:21;;;;;;;22.83;9.90;;;;;;;24.58;49.57;93729.19;5125894;28;20046;-78
2022/07/26 06:41:46;;;;;;;19.55;11.13;;;;;;;24.66;48.75;93721.72;5126215;28;20035;-79
2022/07/26 06:44:12;;;;;;;24.35;11.52;;;;;;;24.60;49.56;93721.38;5125997;28;20087;-78
2022/07/26 06:46:38;;;;;;;18.80;11.10;;;;;;;24.66;49.88;93724.44;5124905;28;20028;-77
2022/07/26 06:49:03;;;;;;;24.98;12.77;;;;;;;24.74;50.00;93728.63;5124833;27;20199;-76
2022/07/26 06:51:29;;;;;;;24.67;11.82;;;;;;;24.79;49.42;93716.50;5124609;28;20094;-76
2022/07/26 06:53:54;;;;;;;18.50;13.10;;;;;;;24.80;49.92;93727.00;5124784;28;20209;-76
2022/07/26 06:56:20;;;;;;;18.33;11.07;;;;;;;24.70;49.31;93725.16;5125937;28;20023;-77
2022/07/26 06:58:45;;;;;;;17.73;11.25;;;;;;;24.73;50.01;93720.84;5125980;28;20091;-77
2022/07/26 07:01:11;;;;;;;19.40;11.30;;;;;;;24.67;49.86;93726.00;5125878;28;20324;-77
2022/07/26 07:03:36;;;;;;;19.02;11.60;;;;;;;24.76;49.74;93722.78;5125571;28;20028;-76
2022/07/26 07:06:02;;;;;;;15.43;9.43;;;;;;;24.90;49.77;93714.44;5125507;28;20332;-77
2022/07/26 07:08:28;;;;;;;15.13;11.18;;;;;;;25.01;49.02;93723.28;5125790;27;20277;-77
2022/07/26 07:10:54;;;;;;;24.17;11.52;;;;;;;25.06;48.65;93729.44;5125657;28;20016;-77
2022/07/26 07:13:20;;;;;;;14.05;11.18;;;;;;;25.10;49.00;93730.94;5125463;28;20020;-77
2022/07/26 07:15:46;;;;;;;16.23;11.00;;;;;;;25.08;49.72;93718.91;5125729;28;20134;-78
2022/07/26 07:18:11;;;;;;;25.20;12.07;;;;;;;25.09;49.16;93712.25;5125256;28;20032;-77
2022/07/26 07:20:38;;;;;;;17.90;11.63;;;;;;;25.07;49.28;93720.06;5125462;28;20124;-77
2022/07/26 07:23:03;;;;;;;18.08;11.10;;;;;;;25.17;50.29;93724.63;5125322;28;20023;-77
2022/07/26 07:25:29;;;;;;;17.67;11.40;;;;;;;25.22;49.87;93716.03;5125530;28;20095;-81
2022/07/26 07:27:54;;;;;;;21.10;12.98;;;;;;;25.33;50.67;93719.34;5125110;28;20335;-78
2022/07/26 07:30:20;;;;;;;20.67;12.13;;;;;;;25.42;49.32;93725.09;5125201;28;20051;-78
2022/07/26 07:32:45;;;;;;;16.85;11.63;;;;;;;25.46;49.97;93730.47;5125358;28;20084;-77
2022/07/26 07:35:10;;;;;;;22.50;11.77;;;;;;;25.59;48.63;93725.25;5124437;28;20373;-76
2022/07/26 07:37:36;;;;;;;16.65;11.57;;;;;;;25.65;49.29;93723.59;5123851;28;20019;-78
2022/07/26 07:40:07;;;;;;;19.17;11.48;;;;;;;25.81;48.56;93722.97;5124592;28;20232;-77
2022/07/26 07:42:32;;;;;;;27.42;11.65;;;;;;;25.89;48.16;93718.94;5123562;28;20039;-79
2022/07/26 07:44:57;;;;;;;25.17;12.40;;;;;;;25.83;48.32;93717.88;5123566;28;20218;-77
2022/07/26 07:47:23;;;;;;;22.77;11.98;;;;;;;25.93;48.34;93713.44;5124421;28;20072;-77
2022/07/26 07:49:48;;;;;;;24.15;12.48;;;;;;;26.02;48.04;93710.97;5124909;28;20313;-78
2022/07/26 07:52:14;;;;;;;26.65;12.60;;;;;;;26.18;47.69;93713.03;5124788;28;20015;-77
2022/07/26 07:54:39;;;;;;;19.92;12.35;;;;;;;26.26;47.49;93710.97;5124488;28;20015;-77
2022/07/26 07:57:05;;;;;;;15.88;12.32;;;;;;;26.28;47.63;93714.03;5124770;28;20046;-75
2022/07/26 07:59:30;;;;;;;21.83;12.25;;;;;;;26.31;47.09;93711.22;5124409;28;20060;-77
2022/07/26 08:01:55;;;;;;;23.80;12.70;;;;;;;26.36;46.57;93708.03;5124430;28;20015;-78
2022/07/26 08:04:21;;;;;;;27.95;14.18;;;;;;;26.38;46.29;93704.88;5124249;28;20278;-77
2022/07/26 08:06:46;;;;;;;16.80;11.80;;;;;;;26.43;45.72;93707.13;5123030;28;20015;-77
2022/07/26 08:09:12;;;;;;;20.58;12.80;;;;;;;26.43;45.78;93712.59;5124014;28;20038;-77
2022/07/26 08:11:37;;;;;;;30.90;13.23;;;;;;;26.43;46.65;93698.94;5124112;28;20035;-78
2022/07/26 08:14:03;;;;;;;19.60;11.98;;;;;;;26.41;46.08;93698.56;5124072;28;20039;-76
2022/07/26 08:16:28;;;;;;;17.33;12.20;;;;;;;26.51;46.29;93697.59;5124225;28;20098;-77
2022/07/26 08:18:54;;;;;;;25.95;12.13;;;;;;;26.61;46.19;93696.66;5124220;28;20028;-78
2022/07/26 08:21:19;;;;;;;21.70;12.07;;;;;;;26.75;45.80;93697.59;5123991;28;20023;-76
2022/07/26 08:23:45;;;;;;;23.50;13.55;;;;;;;26.79;44.72;93696.31;5122855;28;20291;-81
2022/07/26 08:26:10;;;;;;;16.45;11.88;;;;;;;26.79;45.50;93690.09;5124478;28;20064;-80
2022/07/26 08:28:35;;;;;;;17.50;11.48;;;;;;;26.91;44.76;93689.44;5122854;28;20117;-78
2022/07/26 08:31:01;;;;;;;21.48;12.48;;;;;;;27.00;44.34;93684.16;5124061;28;20034;-78
2022/07/26 08:33:26;;;;;;;21.27;12.13;;;;;;;27.04;43.92;93686.84;5124031;28;20054;-76
2022/07/26 08:35:52;;;;;;;23.73;12.05;;;;;;;27.14;43.50;93691.31;5123753;28;20027;-76
2022/07/26 08:38:17;;;;;;;14.20;11.40;;;;;;;27.27;43.40;93680.50;5123855;28;20332;-76
2022/07/26 08:40:43;;;;;;;18.00;11.45;;;;;;;27.36;43.00;93680.69;5123744;28;20058;-76
2022/07/26 08:43:10;;;;;;;17.83;12.60;;;;;;;27.51;42.78;93688.59;5123770;28;20027;-76
2022/07/26 08:45:35;;;;;;;27.65;12.25;;;;;;;27.53;42.58;93686.19;5123023;28;20101;-76
2022/07/26 08:48:01;;;;;;;20.70;11.43;;;;;;;27.55;42.27;93683.81;5123023;28;20032;-76
2022/07/26 08:50:27;;;;;;;17.90;12.45;;;;;;;27.54;42.29;93685.78;5123594;28;20023;-76
2022/07/26 08:52:58;;;;;;;19.08;11.50;;;;;;;27.62;42.25;93686.38;5123331;28;20027;-76
2022/07/26 08:55:24;;;;;;;20.27;12.68;;;;;;;27.71;42.29;93680.31;5123428;28;20199;-77
2022/07/26 08:57:49;;;;;;;28.88;12.30;;;;;;;27.80;41.44;93672.25;5123646;28;20098;-77
2022/07/26 09:00:16;;;;;;;25.10;11.95;;;;;;;27.80;41.14;93681.25;5123239;28;20104;-76
2022/07/26 09:02:42;;;;;;;17.83;11.48;;;;;;;27.94;41.42;93679.38;5123402;28;20027;-76
2022/07/26 09:05:08;;;;;;;21.30;11.50;;;;;;;28.01;39.98;93677.25;5123276;28;20091;-75
2022/07/26 09:07:33;;;;;;;16.20;10.73;;;;;;;28.02;39.67;93675.28;5123379;28;20130;-75
2022/07/26 09:10:04;;;;;;;21.58;9.73;;;;;;;28.12;37.43;93679.72;5123185;28;20038;-75
2022/07/26 09:12:31;;;;;;;12.35;9.23;;;;;;;28.19;36.55;93676.81;5123581;28;20221;-77
2022/07/26 09:14:58;;;;;;;11.27;8.85;;;;;;;28.17;36.33;93665.50;5123029;28;20090;-75
2022/07/26 09:17:37;;;;;;;19.73;9.98;;;;;;;28.24;37.69;93672.75;5123051;28;20047;-76
2022/07/26 09:20:09;;;;;;;14.90;10.25;;;;;;;28.38;38.81;93675.13;5123024;28;20024;-75
2022/07/26 09:22:37;;;;;;;14.95;10.13;;;;;;;28.57;39.04;93678.97;5123007;28;20020;-75
2022/07/26 09:25:17;;;;;;;14.23;9.13;;;;;;;28.70;36.20;93680.97;5123110;28;20024;-77
2022/07/26 09:27:43;;;;;;;15.27;9.90;;;;;;;28.84;37.09;93668.84;5123102;28;20309;-77
2022/07/26 09:30:09;;;;;;;15.02;10.43;;;;;;;28.88;37.51;93669.50;5123005;28;20094;-77
2022/07/26 09:32:35;;;;;;;15.25;10.32;;;;;;;28.89;37.29;93662.84;5122938;28;20027;-77
2022/07/26 09:35:14;;;;;;;13.38;10.23;;;;;;;29.00;37.32;93668.75;5122790;28;20027;-78
2022/07/26 09:37:42;;;;;;;14.65;9.85;;;;;;;29.13;37.63;93664.09;5122529;28;20027;-77
2022/07/26 09:40:10;;;;;;;17.63;10.70;;;;;;;29.24;36.67;93657.53;5120838;28;20060;-77
2022/07/26 09:42:37;;;;;;;23.77;9.55;;;;;;;29.37;36.16;93661.84;5121457;28;20118;-78
2022/07/26 09:45:15;;;;;;;20.50;10.90;;;;;;;29.47;36.82;93659.94;5122891;28;20085;-77
2022/07/26 09:47:40;;;;;;;14.50;9.15;;;;;;;29.57;35.14;93658.06;5121551;28;20110;-77
2022/07/26 09:50:13;;;;;;;15.68;9.90;;;;;;;29.47;36.23;93657.19;5121165;28;20031;-77
2022/07/26 09:52:39;;;;;;;15.40;8.60;;;;;;;29.50;36.90;93653.59;5120985;28;20039;-78
2022/07/26 09:55:07;;;;;;;12.40;8.93;;;;;;;29.61;36.33;93653.25;5120867;28;20019;-78
2022/07/26 09:57:34;;;;;;;10.35;8.45;;;;;;;29.74;36.37;93639.53;5121635;28;20099;-78
2022/07/26 10:00:04;;;;;;;13.93;9.90;;;;;;;29.78;36.14;93643.72;5124858;28;20023;-77
2022/07/26 10:02:31;;;;;;;15.75;9.32;;;;;;;29.82;35.92;93645.56;5124929;28;20027;-77
2022/07/26 10:04:57;;;;;;;13.80;8.68;;;;;;;29.88;33.94;93649.28;5126477;28;20024;-77
2022/07/26 10:07:22;;;;;;;12.60;9.43;;;;;;;29.94;31.57;93647.50;5126361;28;20129;-83
2022/07/26 10:10:04;;;;;;;17.33;10.25;;;;;;;29.80;32.22;93644.03;5126545;28;20089;-84
2022/07/26 10:12:32;;;;;;;12.68;9.50;;;;;;;29.65;33.54;93640.16;5126261;28;20034;-83
2022/07/26 10:14:57;;;;;;;14.32;9.45;;;;;;;29.71;33.30;93637.66;5126389;28;20020;-83
2022/07/26 10:17:26;;;;;;;13.07;9.75;;;;;;;29.87;33.12;93631.28;5126565;28;20092;-83
2022/07/26 10:19:55;;;;;;;13.25;9.90;;;;;;;30.02;33.63;93635.06;5125523;28;20023;-84
2022/07/26 10:22:25;;;;;;;18.63;10.40;;;;;;;30.17;32.77;93622.41;5126637;28;20038;-84
2022/07/26 10:24:53;;;;;;;14.80;8.82;;;;;;;30.30;32.61;93629.84;5126532;28;20020;-84
2022/07/26 10:27:39;;;;;;;14.27;9.40;;;;;;;30.48;31.15;93629.25;5125302;28;20118;-84
2022/07/26 10:30:22;;;;;;;16.02;8.80;;;;;;;30.43;30.75;93633.34;5126558;28;20016;-85
2022/07/26 10:32:53;;;;;;;12.77;7.97;;;;;;;30.30;29.62;93625.13;5126211;28;20081;-83
2022/07/26 10:35:42;;;;;;;11.40;7.33;;;;;;;30.25;27.87;93620.19;5126539;28;20015;-84
2022/07/26 10:38:10;;;;;;;11.68;7.07;;;;;;;30.27;28.18;93619.72;5126296;28;20251;-83
2022/07/26 10:40:37;;;;;;;14.35;7.95;;;;;;;30.17;28.18;93621.63;5126447;28;20061;-83
2022/07/26 10:43:10;;;;;;;9.80;7.10;;;;;;;30.07;27.79;93612.53;5126087;28;20016;-83
2022/07/26 10:45:36;;;;;;;8.63;6.82;;;;;;;30.00;27.80;93618.25;5125874;27;20039;-83
2022/07/26 10:48:48;;;;;;;11.60;7.68;;;;;;;29.92;27.98;93611.47;5125825;28;20031;-82
2022/07/26 10:51:28;;;;;;;10.98;6.90;;;;;;;29.97;29.24;93602.69;5125669;28;20027;-85
2022/07/26 10:54:10;;;;;;;10.38;7.03;;;;;;;30.05;28.85;93598.47;5126129;28;20248;-86
2022/07/26 10:56:37;;;;;;;10.75;7.45;;;;;;;30.15;28.67;93600.09;5126113;27;20035;-87
2022/07/26 10:59:04;;;;;;;8.65;6.15;;;;;;;30.23;26.95;93597.88;5125999;28;20118;-87
2022/07/26 11:01:33;;;;;;;7.57;6.43;;;;;;;30.21;27.02;93594.78;5125794;28;20039;-84
2022/07/26 11:03:58;;;;;;;10.88;6.60;;;;;;;30.28;27.13;93582.78;5124227;28;20330;-82
2022/07/26 11:06:27;;;;;;;8.95;5.85;;;;;;;30.30;26.78;93581.13;5125428;28;20091;-85
2022/07/26 11:08:52;;;;;;;7.82;6.57;;;;;;;30.40;27.00;93584.72;5124982;28;20210;-83
2022/07/26 11:11:29;;;;;;;10.23;7.53;;;;;;;30.46;25.93;93580.19;5125188;28;20024;-84
2022/07/26 11:14:09;;;;;;;10.82;7.05;;;;;;;30.49;26.32;93576.56;5124479;28;20236;-85
2022/07/26 11:16:42;;;;;;;11.25;7.03;;;;;;;30.59;28.46;93569.09;5125314;28;20326;-85
2022/07/26 11:19:14;;;;;;;9.43;6.38;;;;;;;30.80;27.91;93570.31;5124266;28;20027;-83
2022/07/26 11:21:40;;;;;;;10.25;6.80;;;;;;;30.97;26.74;93563.38;5125438;28;20091;-84